DEC weather

Decatur Airport
Decatur, Illinois, United States

Public forecast

Using degrees Fahrenheit for public forecast. Weather courtesy of forecast.io.

Current aviation weather report (METAR) for Decatur Airport

Retrieved 2019/10/20 03:54 UTC (39 minutes ago):

KDEC 200354Z AUTO 00000KT 10SM OVC050 14/09 A2979 RMK AO2 SLP086 T01440089

Aviation forecast (TAF) for Decatur Airport

Retrieved 2019-10-20 00:27 UTC (4 hours ago):

TAF KDEC 192325Z 2000/2024 22007KT P6SM BKN100 FM200700 27005KT P6SM BKN025 FM201200 VRB04KT P6SM BKN015 FM201500 10004KT P6SM SCT035